Flinterborg — PHPH — position and weather

sailwx.info

Track history (hours):
 
Tides and Currents Weather Stations Pressure Air Temp Water Temp Dewpoint Dewpoint Depression Visibility Wind Speed Wind Dir Waves Ship Positions

Flinterborg

Last reported at 2014-Oct-24 01:12 UTC. Time now 2014-Oct-25 19:00 UTC.
Position N 55°47' E 019°52'.

Length 111 m; draft 3.9 m.

Type: Ship. MMSI: 245433000.

Date/timePositionNaut miles runAvg speedWind from/ knotsBaromVisibWave heightAir tempDewpointWater temp
2014-Oct-24 01:12N 55°47' E 019°52'912.3
2014-Oct-24 00:31N 55°39' E 019°46'1312.2
2014-Oct-23 23:25N 55°27' E 019°36'1612.3
2014-Oct-23 22:07N 55°13' E 019°24'712.5
2014-Oct-23 21:33N 55°07' E 019°18'1312.7
2014-Oct-23 20:33N 54°55' E 019°09'1312.7
2014-Oct-23 19:33N 54°43' E 019°00'1312.8
2014-Oct-23 18:33N 54°32' E 018°49'10 9.6
2014-Oct-23 17:33N 54°24' E 018°40'1 1.2
2014-Oct-23 16:33N 54°23' E 018°40'0 0.0
2014-Oct-23 15:33N 54°23' E 018°40'0 0.0
2014-Oct-23 14:33N 54°23' E 018°40'0 0.0
2014-Oct-23 13:32N 54°23' E 018°40'0 0.0
2014-Oct-23 12:32N 54°23' E 018°40'0 0.0
2014-Oct-23 11:31N 54°23' E 018°40'0 0.0
2014-Oct-23 10:31N 54°23' E 018°40'0 0.0
2014-Oct-23 09:33N 54°23' E 018°40'0 0.0
2014-Oct-23 08:30N 54°23' E 018°40'0 0.0
2014-Oct-23 07:33N 54°23' E 018°40'0 0.0
2014-Oct-23 06:32N 54°23' E 018°40'0 0.0
2014-Oct-23 05:32N 54°23' E 018°40'0 0.0
2014-Oct-23 04:31N 54°23' E 018°40'0 0.0
2014-Oct-23 03:31N 54°23' E 018°40'0 0.0
2014-Oct-23 02:33N 54°23' E 018°40'0 0.0
2014-Oct-23 01:30N 54°23' E 018°40'0 0.0
2014-Oct-23 00:33N 54°23' E 018°40'0 0.0
2014-Oct-22 23:32N 54°23' E 018°40'0 0.0
2014-Oct-22 22:32N 54°23' E 018°40'0 0.0
2014-Oct-22 21:31N 54°23' E 018°40'0 0.0
2014-Oct-22 20:31N 54°23' E 018°40'0 0.0
2014-Oct-22 19:33N 54°23' E 018°40'0 0.0
2014-Oct-22 18:30N 54°23' E 018°40'0 0.0
2014-Oct-22 17:32N 54°23' E 018°40'0 0.0
2014-Oct-22 16:32N 54°23' E 018°40'0 0.0
2014-Oct-22 15:32N 54°23' E 018°40'0 0.0
2014-Oct-22 14:31N 54°23' E 018°40'0 0.0
2014-Oct-22 13:31N 54°23' E 018°40'0 0.0
2014-Oct-22 12:33N 54°23' E 018°40'0 0.0
2014-Oct-22 11:33N 54°23' E 018°40'0 0.0
2014-Oct-22 10:32N 54°23' E 018°40'3 3.4
2014-Oct-22 09:34N 54°26' E 018°39'1110.7
2014-Oct-22 08:34N 54°35' E 018°51'1010.1
2014-Oct-22 07:34N 54°44' E 018°58'1110.7
2014-Oct-22 06:34N 54°55' E 018°59'1010.3
2014-Oct-22 05:34N 55°05' E 019°01'  
2014-Oct-15 05:30N 55°39' E 015°32'1112.1
2014-Oct-15 04:33N 55°34' E 015°14'1212.4
2014-Oct-15 03:33N 55°28' E 014°55'1212.2
2014-Oct-15 02:33N 55°21' E 014°37'1212.1
2014-Oct-15 01:33N 55°11' E 014°23'1312.3
2014-Oct-15 00:30N 55°02' E 014°07'6112.4
2014-Oct-14 19:33N 54°36' E 012°32'1212.3
2014-Oct-14 18:33N 54°28' E 012°15'1111.3
2014-Oct-14 17:33N 54°25' E 011°56'80 8.8
2014-Oct-14 08:26N 54°17' E 009°39'22 7.5
2014-Oct-14 05:30N 53°59' E 009°17'7 7.5
2014-Oct-14 04:33N 53°54' E 009°09'1 1.3
2014-Oct-14 03:33N 53°53' E 009°07'1 1.0
2014-Oct-14 02:33N 53°53' E 009°06'1111.2
2014-Oct-14 01:34N 53°50' E 008°47'  
Track history (hours):
 
Tides and Currents Weather Stations Pressure Air Temp Water Temp Dewpoint Dewpoint Depression Visibility Wind Speed Wind Dir Waves Ship Positions

Flinterborg

Last reported at 2014-Oct-24 01:12 UTC. Time now 2014-Oct-25 19:00 UTC.
Position N 55°47' E 019°52'.

Length 111 m; draft 3.9 m.

Type: Ship. MMSI: 245433000.

Date/timePositionNaut miles runAvg speedWind from/ knotsBaromVisibWave heightAir tempDewpointWater temp
2014-Oct-24 01:12N 55°47' E 019°52'912.3
2014-Oct-24 00:31N 55°39' E 019°46'1312.2
2014-Oct-23 23:25N 55°27' E 019°36'1612.3
2014-Oct-23 22:07N 55°13' E 019°24'712.5
2014-Oct-23 21:33N 55°07' E 019°18'1312.7
2014-Oct-23 20:33N 54°55' E 019°09'1312.7
2014-Oct-23 19:33N 54°43' E 019°00'1312.8
2014-Oct-23 18:33N 54°32' E 018°49'10 9.6
2014-Oct-23 17:33N 54°24' E 018°40'1 1.2
2014-Oct-23 16:33N 54°23' E 018°40'0 0.0
2014-Oct-23 15:33N 54°23' E 018°40'0 0.0
2014-Oct-23 14:33N 54°23' E 018°40'0 0.0
2014-Oct-23 13:32N 54°23' E 018°40'0 0.0
2014-Oct-23 12:32N 54°23' E 018°40'0 0.0
2014-Oct-23 11:31N 54°23' E 018°40'0 0.0
2014-Oct-23 10:31N 54°23' E 018°40'0 0.0
2014-Oct-23 09:33N 54°23' E 018°40'0 0.0
2014-Oct-23 08:30N 54°23' E 018°40'0 0.0
2014-Oct-23 07:33N 54°23' E 018°40'0 0.0
2014-Oct-23 06:32N 54°23' E 018°40'0 0.0
2014-Oct-23 05:32N 54°23' E 018°40'0 0.0
2014-Oct-23 04:31N 54°23' E 018°40'0 0.0
2014-Oct-23 03:31N 54°23' E 018°40'0 0.0
2014-Oct-23 02:33N 54°23' E 018°40'0 0.0
2014-Oct-23 01:30N 54°23' E 018°40'0 0.0
2014-Oct-23 00:33N 54°23' E 018°40'0 0.0
2014-Oct-22 23:32N 54°23' E 018°40'0 0.0
2014-Oct-22 22:32N 54°23' E 018°40'0 0.0
2014-Oct-22 21:31N 54°23' E 018°40'0 0.0
2014-Oct-22 20:31N 54°23' E 018°40'0 0.0
2014-Oct-22 19:33N 54°23' E 018°40'0 0.0
2014-Oct-22 18:30N 54°23' E 018°40'0 0.0
2014-Oct-22 17:32N 54°23' E 018°40'0 0.0
2014-Oct-22 16:32N 54°23' E 018°40'0 0.0
2014-Oct-22 15:32N 54°23' E 018°40'0 0.0
2014-Oct-22 14:31N 54°23' E 018°40'0 0.0
2014-Oct-22 13:31N 54°23' E 018°40'0 0.0
2014-Oct-22 12:33N 54°23' E 018°40'0 0.0
2014-Oct-22 11:33N 54°23' E 018°40'0 0.0
2014-Oct-22 10:32N 54°23' E 018°40'3 3.4
2014-Oct-22 09:34N 54°26' E 018°39'1110.7
2014-Oct-22 08:34N 54°35' E 018°51'1010.1
2014-Oct-22 07:34N 54°44' E 018°58'1110.7
2014-Oct-22 06:34N 54°55' E 018°59'1010.3
2014-Oct-22 05:34N 55°05' E 019°01'  
2014-Oct-15 05:30N 55°39' E 015°32'1112.1
2014-Oct-15 04:33N 55°34' E 015°14'1212.4
2014-Oct-15 03:33N 55°28' E 014°55'1212.2
2014-Oct-15 02:33N 55°21' E 014°37'1212.1
2014-Oct-15 01:33N 55°11' E 014°23'1312.3
2014-Oct-15 00:30N 55°02' E 014°07'6112.4
2014-Oct-14 19:33N 54°36' E 012°32'1212.3
2014-Oct-14 18:33N 54°28' E 012°15'1111.3
2014-Oct-14 17:33N 54°25' E 011°56'80 8.8
2014-Oct-14 08:26N 54°17' E 009°39'22 7.5
2014-Oct-14 05:30N 53°59' E 009°17'7 7.5
2014-Oct-14 04:33N 53°54' E 009°09'1 1.3
2014-Oct-14 03:33N 53°53' E 009°07'1 1.0
2014-Oct-14 02:33N 53°53' E 009°06'1111.2
2014-Oct-14 01:34N 53°50' E 008°47'  

Dump ship's entire track history